Time;durP1;ratioP1;P1;durP2;ratioP2;P2;SDS_P1;SDS_P2;PMS_P1;PMS_P2;Temp;Humidity;BMP_temperature;BMP_pressure;BME280_temperature;BME280_humidity;BME280_pressure;Samples;Min_cycle;Max_cycle;Signal;HPM_P1;HPM_P2
2020/12/26 00:01:44;;;;;;;11.05;7.05;;;1.20;94.10;;;;;;5013520;28;20033;-77
2020/12/26 00:04:10;;;;;;;12.38;8.02;;;1.20;93.90;;;;;;5029759;28;20249;-77
2020/12/26 00:06:35;;;;;;;15.38;8.32;;;1.20;94.30;;;;;;5030238;28;20026;-77
2020/12/26 00:09:01;;;;;;;16.10;8.45;;;1.10;94.30;;;;;;5007965;28;20047;-76
2020/12/26 00:11:27;;;;;;;13.48;7.85;;;1.10;94.40;;;;;;5029497;28;20108;-76
2020/12/26 00:13:52;;;;;;;12.02;8.05;;;1.10;94.30;;;;;;5028288;28;20033;-74
2020/12/26 00:16:19;;;;;;;12.75;8.57;;;1.10;94.20;;;;;;5028248;28;20033;-76
2020/12/26 00:18:45;;;;;;;14.55;8.82;;;1.10;94.30;;;;;;5027397;28;20030;-74
2020/12/26 00:21:14;;;;;;;13.82;8.75;;;1.10;94.50;;;;;;5014514;28;20036;-76
2020/12/26 00:23:41;;;;;;;14.20;9.13;;;1.10;94.60;;;;;;5012594;28;20041;-76
2020/12/26 00:26:06;;;;;;;13.35;9.18;;;1.10;94.70;;;;;;5025626;28;20045;-77
2020/12/26 00:28:33;;;;;;;14.60;10.00;;;1.10;94.80;;;;;;5029986;28;20432;-77
2020/12/26 00:30:59;;;;;;;15.70;10.25;;;1.10;94.70;;;;;;5029530;28;20049;-76
2020/12/26 00:33:25;;;;;;;20.45;10.88;;;1.10;94.70;;;;;;5013869;28;20114;-77
2020/12/26 00:35:51;;;;;;;20.25;11.88;;;1.10;94.70;;;;;;5029396;28;20037;-76
2020/12/26 00:38:16;;;;;;;23.52;12.10;;;1.00;94.90;;;;;;5028095;28;20112;-77
2020/12/26 00:40:42;;;;;;;20.15;11.63;;;1.00;94.90;;;;;;5028200;28;20534;-77
2020/12/26 00:43:08;;;;;;;20.20;12.15;;;1.00;94.90;;;;;;5027139;28;20033;-77
2020/12/26 00:45:34;;;;;;;25.08;13.45;;;1.00;95.00;;;;;;5012301;28;20079;-76
2020/12/26 00:48:00;;;;;;;24.50;14.00;;;1.10;94.70;;;;;;5027021;28;20029;-76
2020/12/26 00:50:26;;;;;;;22.77;12.75;;;1.10;94.80;;;;;;5011232;28;20052;-76
2020/12/26 00:52:51;;;;;;;22.83;12.50;;;1.00;95.00;;;;;;5026535;28;20440;-76
2020/12/26 00:55:17;;;;;;;24.00;13.27;;;1.00;94.90;;;;;;5003988;28;20029;-76
2020/12/26 00:57:43;;;;;;;22.73;13.98;;;1.00;95.00;;;;;;5013439;28;20032;-76
2020/12/26 01:00:09;;;;;;;28.83;14.10;;;1.00;95.20;;;;;;5037014;28;20025;-76
2020/12/26 01:02:35;;;;;;;27.05;14.35;;;0.90;95.20;;;;;;5029741;28;20037;-77
2020/12/26 01:05:01;;;;;;;24.13;14.20;;;1.00;95.30;;;;;;5011354;28;20566;-76
2020/12/26 01:07:27;;;;;;;25.55;14.27;;;1.00;95.30;;;;;;5012010;28;20083;-77
2020/12/26 01:09:53;;;;;;;24.65;14.50;;;0.90;95.30;;;;;;5028760;28;20104;-77
2020/12/26 01:12:18;;;;;;;30.08;16.30;;;0.90;95.40;;;;;;5027947;28;20036;-77
2020/12/26 01:14:44;;;;;;;29.17;15.13;;;0.90;95.20;;;;;;5012060;28;20029;-76
2020/12/26 01:17:11;;;;;;;29.15;16.45;;;1.00;95.40;;;;;;5025755;28;20079;-76
2020/12/26 01:19:37;;;;;;;33.10;16.83;;;0.90;95.50;;;;;;5027723;28;20575;-76
2020/12/26 01:22:02;;;;;;;33.85;15.85;;;0.90;95.40;;;;;;5012168;28;20068;-77
2020/12/26 01:24:28;;;;;;;34.15;18.13;;;0.90;95.40;;;;;;5012320;28;20094;-77
2020/12/26 01:26:54;;;;;;;29.42;16.50;;;0.90;95.40;;;;;;5010233;28;20110;-76
2020/12/26 01:29:19;;;;;;;31.55;15.60;;;0.90;95.40;;;;;;5026125;28;20033;-77
2020/12/26 01:31:53;;;;;;;36.45;17.40;;;0.90;95.40;;;;;;5029534;28;20488;-76
2020/12/26 01:34:19;;;;;;;29.40;17.08;;;0.90;95.50;;;;;;5027601;28;20024;-77
2020/12/26 01:36:55;;;;;;;37.55;16.88;;;0.90;95.50;;;;;;5029069;28;20104;-77
2020/12/26 01:39:22;;;;;;;31.00;16.70;;;0.90;95.50;;;;;;5011083;28;20025;-77
2020/12/26 01:41:54;;;;;;;35.38;16.95;;;0.80;95.50;;;;;;5027487;28;20036;-76
2020/12/26 01:44:22;;;;;;;29.67;16.08;;;0.80;95.50;;;;;;5024279;28;20032;-77
2020/12/26 01:46:51;;;;;;;30.27;15.90;;;0.80;95.60;;;;;;5029015;28;20132;-76
2020/12/26 01:49:21;;;;;;;30.67;16.67;;;0.80;95.60;;;;;;5012241;28;20017;-76
2020/12/26 01:51:48;;;;;;;30.23;15.50;;;0.80;95.50;;;;;;5029548;28;20021;-77
2020/12/26 01:54:14;;;;;;;23.85;15.18;;;0.70;95.60;;;;;;5011362;28;20025;-77
2020/12/26 01:56:40;;;;;;;27.55;15.15;;;0.70;95.60;;;;;;5025621;28;20401;-76
2020/12/26 01:59:07;;;;;;;27.75;14.95;;;0.70;95.60;;;;;;5028474;28;20045;-77
2020/12/26 02:01:35;;;;;;;30.02;14.73;;;0.70;95.60;;;;;;5030661;28;20025;-75
2020/12/26 02:04:01;;;;;;;28.27;15.30;;;0.70;95.30;;;;;;5030409;28;20038;-76
2020/12/26 02:06:35;;;;;;;34.10;14.82;;;0.70;95.80;;;;;;5032605;28;20029;-76
2020/12/26 02:09:01;;;;;;;20.90;13.50;;;0.70;95.60;;;;;;5033189;28;20109;-76
2020/12/26 02:11:27;;;;;;;25.48;13.75;;;0.60;95.40;;;;;;5020659;28;20056;-76
2020/12/26 02:13:54;;;;;;;37.20;14.52;;;0.60;95.40;;;;;;5014793;28;20033;-76
2020/12/26 02:16:19;;;;;;;27.35;14.63;;;0.50;95.40;;;;;;5031361;28;20072;-76
2020/12/26 02:18:45;;;;;;;26.38;13.93;;;0.50;95.60;;;;;;5031544;28;20116;-76
2020/12/26 02:21:11;;;;;;;28.00;14.52;;;0.50;95.50;;;;;;5030115;28;20105;-76
2020/12/26 02:23:44;;;;;;;30.63;16.95;;;0.40;95.70;;;;;;5030622;28;20060;-76
2020/12/26 02:26:10;;;;;;;21.92;13.90;;;0.50;95.60;;;;;;5029535;28;20032;-76
2020/12/26 02:28:36;;;;;;;30.20;14.43;;;0.40;95.60;;;;;;5029304;28;20080;-76
2020/12/26 02:31:02;;;;;;;26.02;16.08;;;0.40;95.70;;;;;;5030393;28;20025;-77
2020/12/26 02:33:28;;;;;;;29.20;16.48;;;0.40;95.70;;;;;;5029253;28;20072;-76
2020/12/26 02:35:54;;;;;;;27.42;15.07;;;0.40;95.80;;;;;;5029201;28;20493;-76
2020/12/26 02:38:19;;;;;;;23.30;14.45;;;0.40;95.80;;;;;;5013572;28;20625;-75
2020/12/26 02:40:50;;;;;;;30.20;15.10;;;0.30;95.80;;;;;;5030329;28;20401;-75
2020/12/26 02:43:20;;;;;;;26.33;15.50;;;0.30;95.90;;;;;;5031021;28;20533;-77
2020/12/26 02:45:46;;;;;;;26.95;14.60;;;0.40;95.70;;;;;;5030941;28;20026;-76
2020/12/26 02:48:12;;;;;;;23.52;14.85;;;0.40;95.60;;;;;;5030766;28;20022;-76
2020/12/26 02:50:37;;;;;;;22.00;13.15;;;0.40;95.50;;;;;;5014628;28;20447;-76
2020/12/26 02:53:03;;;;;;;23.15;14.75;;;0.40;95.60;;;;;;5030403;28;20083;-75
2020/12/26 02:55:29;;;;;;;24.13;13.95;;;0.40;95.70;;;;;;5013607;28;20117;-74
2020/12/26 02:57:54;;;;;;;26.13;15.05;;;0.40;95.50;;;;;;5015182;28;20052;-76
2020/12/26 03:00:20;;;;;;;25.88;14.57;;;0.40;95.50;;;;;;5031534;28;20390;-76
2020/12/26 03:02:46;;;;;;;25.98;14.13;;;0.40;95.60;;;;;;5031174;28;20151;-76
2020/12/26 03:05:11;;;;;;;25.67;14.57;;;0.40;95.60;;;;;;5014586;28;20112;-76
2020/12/26 03:07:37;;;;;;;25.90;14.15;;;0.30;95.70;;;;;;5028967;28;20433;-76
2020/12/26 03:10:04;;;;;;;27.75;15.77;;;0.40;95.80;;;;;;5012449;28;20021;-77
2020/12/26 03:12:30;;;;;;;25.58;14.43;;;0.40;95.80;;;;;;5029518;28;20112;-76
2020/12/26 03:14:56;;;;;;;26.23;13.45;;;0.40;95.80;;;;;;5035018;28;20064;-75
2020/12/26 03:17:21;;;;;;;26.13;14.45;;;0.40;95.60;;;;;;5033144;28;20191;-76
2020/12/26 03:19:47;;;;;;;25.63;14.25;;;0.40;95.60;;;;;;5012430;28;20026;-77
2020/12/26 03:22:12;;;;;;;27.50;14.00;;;0.50;95.50;;;;;;5013507;28;20033;-77
2020/12/26 03:24:38;;;;;;;27.15;14.13;;;0.50;95.50;;;;;;5030070;28;20021;-76
2020/12/26 03:27:04;;;;;;;30.02;14.35;;;0.50;95.50;;;;;;5030124;28;20051;-73
2020/12/26 03:29:30;;;;;;;26.98;14.38;;;0.50;95.40;;;;;;5012344;28;20381;-76
2020/12/26 03:31:56;;;;;;;28.27;14.82;;;0.50;95.60;;;;;;5031725;28;20029;-77
2020/12/26 03:34:22;;;;;;;25.77;14.20;;;0.50;95.60;;;;;;5030161;28;20018;-77
2020/12/26 03:36:47;;;;;;;25.77;13.57;;;0.50;95.70;;;;;;5012717;28;20029;-77
2020/12/26 03:39:13;;;;;;;25.10;14.20;;;0.50;95.70;;;;;;5029517;28;20117;-76
2020/12/26 03:41:39;;;;;;;25.40;14.15;;;0.50;95.70;;;;;;5014320;28;20112;-76
2020/12/26 03:44:04;;;;;;;28.45;13.75;;;0.50;95.60;;;;;;5028528;28;20049;-76
2020/12/26 03:46:30;;;;;;;23.88;13.50;;;0.60;95.40;;;;;;5029797;28;20057;-76
2020/12/26 03:48:56;;;;;;;26.02;14.65;;;0.60;95.30;;;;;;5031307;28;20026;-76
2020/12/26 03:51:21;;;;;;;27.52;14.15;;;0.60;95.40;;;;;;5030299;28;20068;-77
2020/12/26 03:53:47;;;;;;;28.98;15.45;;;0.60;95.50;;;;;;5029930;28;20079;-76
2020/12/26 03:56:17;;;;;;;25.17;14.60;;;0.60;95.60;;;;;;5028243;28;20112;-76
2020/12/26 03:58:42;;;;;;;24.73;14.50;;;0.70;95.60;;;;;;5030398;28;20048;-76
2020/12/26 04:01:09;;;;;;;27.15;14.60;;;0.70;95.50;;;;;;5029227;28;20076;-77
2020/12/26 04:03:34;;;;;;;26.63;14.35;;;0.70;95.60;;;;;;5030524;28;20490;-76
2020/12/26 04:06:00;;;;;;;28.02;14.02;;;0.70;95.50;;;;;;5013947;28;20075;-76
2020/12/26 04:08:26;;;;;;;25.25;14.45;;;0.70;95.40;;;;;;5030480;28;20022;-77
2020/12/26 04:10:51;;;;;;;28.13;14.18;;;0.70;95.40;;;;;;5010416;28;20041;-76
2020/12/26 04:13:17;;;;;;;26.55;13.55;;;0.80;95.40;;;;;;5013789;28;20025;-76
2020/12/26 04:15:43;;;;;;;29.73;14.75;;;0.80;95.50;;;;;;5029895;28;20029;-76
2020/12/26 04:18:08;;;;;;;28.42;14.60;;;0.80;95.40;;;;;;5029841;28;20412;-76
2020/12/26 04:20:34;;;;;;;29.60;14.05;;;0.80;95.50;;;;;;5012959;28;20481;-77
2020/12/26 04:23:00;;;;;;;28.38;14.20;;;0.80;95.50;;;;;;5029178;28;20029;-76
2020/12/26 04:25:25;;;;;;;26.55;13.73;;;0.90;95.40;;;;;;5010217;28;20581;-77
2020/12/26 04:27:51;;;;;;;30.70;15.32;;;0.80;95.40;;;;;;5010316;28;20029;-76
2020/12/26 04:30:17;;;;;;;26.00;13.45;;;0.80;95.60;;;;;;5029542;28;20403;-75
2020/12/26 04:32:42;;;;;;;30.67;15.27;;;0.90;95.60;;;;;;5028403;28;20512;-77
2020/12/26 04:35:09;;;;;;;31.83;14.82;;;0.90;95.60;;;;;;5029388;28;20397;-77
2020/12/26 04:37:34;;;;;;;26.67;13.70;;;0.90;95.60;;;;;;5010705;28;20022;-76
2020/12/26 04:40:00;;;;;;;28.38;14.85;;;0.90;95.60;;;;;;5028913;28;20041;-76
2020/12/26 04:42:26;;;;;;;30.63;15.23;;;0.90;95.70;;;;;;5027790;28;20025;-76
2020/12/26 04:44:53;;;;;;;28.77;13.95;;;0.90;95.80;;;;;;5031047;28;20504;-77
2020/12/26 04:47:28;;;;;;;29.27;14.45;;;0.90;95.80;;;;;;5030293;28;20025;-77
2020/12/26 04:49:58;;;;;;;23.92;13.77;;;0.90;95.80;;;;;;5012027;28;20084;-76
2020/12/26 04:52:30;;;;;;;28.35;13.90;;;1.00;95.80;;;;;;5028428;28;20040;-77
2020/12/26 04:54:56;;;;;;;;;;;1.00;95.80;;;;;;5030216;28;20025;-76
2020/12/26 04:57:22;;;;;;;28.92;13.68;;;1.00;95.80;;;;;;5028721;28;19995;-75
2020/12/26 04:59:48;;;;;;;29.52;14.15;;;1.00;95.70;;;;;;5026146;28;20029;-77
2020/12/26 05:02:15;;;;;;;28.00;13.82;;;1.00;95.80;;;;;;5025246;28;20029;-76
2020/12/26 05:04:44;;;;;;;25.02;13.65;;;1.00;95.80;;;;;;5027757;28;20034;-77
2020/12/26 05:07:11;;;;;;;27.10;13.85;;;1.00;95.70;;;;;;5012354;28;20026;-77
2020/12/26 05:09:37;;;;;;;25.73;13.55;;;1.00;95.80;;;;;;5028706;28;20584;-76
2020/12/26 05:12:02;;;;;;;28.20;13.50;;;1.00;95.90;;;;;;5044038;28;20028;-76
2020/12/26 05:14:30;;;;;;;31.35;13.85;;;1.10;95.80;;;;;;5028752;28;20025;-77
2020/12/26 05:16:57;;;;;;;23.25;12.43;;;1.10;95.90;;;;;;5028838;28;20038;-76
2020/12/26 05:19:22;;;;;;;26.83;14.73;;;1.10;95.90;;;;;;5026206;28;20100;-76
2020/12/26 05:21:57;;;;;;;23.80;12.90;;;1.10;95.90;;;;;;5012665;28;20021;-76
2020/12/26 05:24:23;;;;;;;23.20;13.75;;;1.10;95.80;;;;;;5028154;28;20030;-76
2020/12/26 05:26:53;;;;;;;24.33;13.43;;;1.20;95.80;;;;;;5011418;28;20022;-76
2020/12/26 05:29:21;;;;;;;25.92;12.95;;;1.20;95.80;;;;;;5030973;28;20104;-75
2020/12/26 05:31:53;;;;;;;27.30;14.77;;;1.20;95.90;;;;;;5031139;28;20018;-76
2020/12/26 05:34:19;;;;;;;26.42;13.60;;;1.20;96.00;;;;;;5027594;28;20036;-76
2020/12/26 05:36:45;;;;;;;20.27;13.05;;;1.20;96.00;;;;;;5028647;28;20451;-77
2020/12/26 05:39:12;;;;;;;28.25;13.82;;;1.20;95.90;;;;;;5027192;28;20116;-76
2020/12/26 05:41:40;;;;;;;28.40;14.50;;;1.20;96.00;;;;;;5025734;28;20180;-77
2020/12/26 05:44:06;;;;;;;25.25;13.15;;;1.20;96.00;;;;;;5027739;28;20143;-77
2020/12/26 05:46:32;;;;;;;26.58;14.20;;;1.30;96.20;;;;;;5027316;28;20112;-77
2020/12/26 05:48:57;;;;;;;27.85;13.63;;;1.20;96.00;;;;;;5025307;28;20037;-76
2020/12/26 05:51:25;;;;;;;28.95;13.98;;;1.30;96.10;;;;;;5026280;28;20017;-76
2020/12/26 05:53:55;;;;;;;24.77;13.38;;;1.30;96.00;;;;;;5028640;28;20116;-75
2020/12/26 05:56:21;;;;;;;24.60;13.43;;;1.30;96.00;;;;;;5011337;28;20163;-77
2020/12/26 05:58:47;;;;;;;24.17;13.18;;;1.30;95.90;;;;;;5028131;28;20057;-76
2020/12/26 06:01:20;;;;;;;27.63;12.95;;;1.40;95.80;;;;;;5027798;28;20037;-76
2020/12/26 06:03:46;;;;;;;28.17;13.52;;;1.40;95.90;;;;;;5028756;28;20030;-77
2020/12/26 06:06:14;;;;;;;25.90;13.02;;;1.40;95.90;;;;;;5009910;28;20733;-77
2020/12/26 06:08:41;;;;;;;20.48;12.80;;;1.40;95.90;;;;;;5026967;28;20088;-77
2020/12/26 06:11:09;;;;;;;22.33;12.88;;;1.40;95.80;;;;;;5030010;28;20104;-76
2020/12/26 06:13:36;;;;;;;23.02;13.23;;;1.40;95.80;;;;;;5026471;28;20022;-77
2020/12/26 06:16:24;;;;;;;22.70;13.40;;;1.40;95.90;;;;;;5029006;28;20063;-77
2020/12/26 06:18:57;;;;;;;23.23;13.50;;;1.40;95.90;;;;;;5010046;28;20029;-76
2020/12/26 06:21:26;;;;;;;22.58;13.15;;;1.40;96.00;;;;;;5028270;28;20029;-76
2020/12/26 06:23:53;;;;;;;24.77;13.50;;;1.40;96.00;;;;;;4993860;28;20030;-76
2020/12/26 06:26:20;;;;;;;21.92;13.40;;;1.40;96.10;;;;;;5011032;28;20021;-76
2020/12/26 06:28:46;;;;;;;25.80;14.02;;;1.40;96.00;;;;;;5029966;28;20021;-76
2020/12/26 06:31:15;;;;;;;20.73;13.55;;;1.40;96.10;;;;;;5025625;28;20018;-77
2020/12/26 06:33:45;;;;;;;23.70;13.43;;;1.40;96.10;;;;;;5027978;28;20087;-77
2020/12/26 06:36:12;;;;;;;23.65;12.98;;;1.40;96.10;;;;;;5011257;28;20029;-77
2020/12/26 06:38:39;;;;;;;20.75;12.65;;;1.40;96.10;;;;;;5025626;28;20621;-77
2020/12/26 06:41:07;;;;;;;20.52;12.60;;;1.50;96.20;;;;;;5027436;28;20520;-75
2020/12/26 06:43:42;;;;;;;21.00;11.75;;;1.50;95.90;;;;;;5027189;28;20095;-77
2020/12/26 06:46:14;;;;;;;18.90;12.35;;;1.60;95.90;;;;;;5027127;28;20509;-76
2020/12/26 06:48:41;;;;;;;18.40;11.50;;;1.60;95.70;;;;;;5031961;28;20055;-76
2020/12/26 06:51:26;;;;;;;22.08;12.55;;;1.60;95.90;;;;;;5031464;28;20038;-77
2020/12/26 06:53:52;;;;;;;20.60;11.38;;;1.60;96.00;;;;;;5013722;28;20030;-75
2020/12/26 06:59:00;;;;;;;18.85;11.13;;;1.60;95.90;;;;;;5030415;28;20036;-77
2020/12/26 07:01:26;;;;;;;20.42;11.55;;;1.60;96.00;;;;;;5027709;28;20116;-77
2020/12/26 07:04:10;;;;;;;18.00;10.98;;;1.60;95.90;;;;;;5030023;28;20029;-77
2020/12/26 07:06:56;;;;;;;18.40;11.27;;;1.60;95.90;;;;;;5031257;28;20472;-76
2020/12/26 07:09:37;;;;;;;19.10;9.98;;;1.60;95.90;;;;;;5011073;28;20032;-76
2020/12/26 07:12:05;;;;;;;18.52;9.93;;;1.70;95.80;;;;;;5013165;28;20029;-77
2020/12/26 07:14:35;;;;;;;19.55;10.63;;;1.70;95.60;;;;;;5040817;28;20066;-76
2020/12/26 07:17:02;;;;;;;18.58;11.90;;;1.70;95.80;;;;;;5029580;28;20037;-77
2020/12/26 07:19:40;;;;;;;18.13;10.77;;;1.60;95.90;;;;;;5029809;28;20034;-76
2020/12/26 07:22:16;;;;;;;20.15;11.23;;;1.60;96.00;;;;;;5030255;28;20704;-77
2020/12/26 07:24:52;;;;;;;17.50;10.38;;;1.60;96.10;;;;;;5030156;28;20028;-76
2020/12/26 07:27:31;;;;;;;19.50;9.75;;;1.60;96.20;;;;;;5030601;28;20041;-77
2020/12/26 07:30:05;;;;;;;19.63;9.05;;;1.70;95.90;;;;;;5030971;28;20022;-77
2020/12/26 07:32:40;;;;;;;14.60;8.52;;;1.70;96.00;;;;;;5029203;28;20025;-76
2020/12/26 07:35:07;;;;;;;19.85;10.23;;;1.70;95.80;;;;;;5037114;28;20038;-77
2020/12/26 07:37:33;;;;;;;14.13;8.38;;;1.70;95.90;;;;;;5012939;28;20033;-76
2020/12/26 07:39:59;;;;;;;13.85;9.05;;;1.70;96.00;;;;;;5029633;28;20056;-77
2020/12/26 07:42:25;;;;;;;16.92;9.27;;;1.70;96.00;;;;;;5027203;28;20065;-75
2020/12/26 07:44:51;;;;;;;18.63;8.88;;;1.70;96.00;;;;;;5036188;28;20030;-76
2020/12/26 07:47:17;;;;;;;11.95;7.97;;;1.70;96.00;;;;;;5034570;28;20033;-76
2020/12/26 07:49:55;;;;;;;16.38;8.10;;;1.80;95.90;;;;;;5013028;28;20075;-76
2020/12/26 07:52:21;;;;;;;16.50;8.40;;;1.80;95.90;;;;;;5030906;28;20091;-76
2020/12/26 07:54:57;;;;;;;12.32;7.53;;;1.80;95.90;;;;;;5031562;28;20026;-75
2020/12/26 07:57:22;;;;;;;12.65;7.70;;;1.90;95.70;;;;;;5030295;28;20057;-75
2020/12/26 07:59:48;;;;;;;12.95;7.57;;;1.80;95.80;;;;;;5029373;28;20532;-77
2020/12/26 08:02:14;;;;;;;13.63;6.93;;;1.80;95.90;;;;;;5030117;28;20389;-76
2020/12/26 08:04:44;;;;;;;53.42;21.80;;;1.90;95.90;;;;;;5013190;28;20018;-77
2020/12/26 08:07:14;;;;;;;18.27;9.18;;;1.90;95.60;;;;;;5030254;28;20028;-76
2020/12/26 08:09:54;;;;;;;12.63;6.72;;;1.90;95.50;;;;;;5029803;28;20054;-74
2020/12/26 08:12:21;;;;;;;13.40;7.18;;;1.90;95.70;;;;;;5029059;28;20040;-76
2020/12/26 08:15:00;;;;;;;15.15;6.82;;;1.90;95.70;;;;;;5029386;28;20021;-74
2020/12/26 08:17:33;;;;;;;12.95;6.90;;;1.90;95.90;;;;;;5052527;22;20479;-73
2020/12/26 08:20:07;;;;;;;13.20;6.88;;;1.90;95.90;;;;;;5014446;28;20017;-74
2020/12/26 08:22:36;;;;;;;16.15;7.68;;;1.90;95.90;;;;;;5033564;28;20022;-73
2020/12/26 08:25:09;;;;;;;13.20;5.88;;;2.00;95.80;;;;;;5045343;28;20028;-74
2020/12/26 08:27:36;;;;;;;12.18;6.03;;;1.90;95.80;;;;;;5013199;28;20017;-73
2020/12/26 08:30:14;;;;;;;14.55;6.43;;;1.90;95.90;;;;;;5004094;28;20025;-74
2020/12/26 08:32:55;;;;;;;12.93;5.35;;;2.00;96.00;;;;;;5003986;28;20578;-74
2020/12/26 08:35:24;;;;;;;10.93;5.93;;;2.00;95.90;;;;;;5004795;28;20036;-74
2020/12/26 08:38:39;;;;;;;11.00;5.78;;;2.00;95.90;;;;;;5004877;28;20041;-73
2020/12/26 08:41:07;;;;;;;10.27;6.03;;;2.00;95.90;;;;;;4993750;28;20044;-73
2020/12/26 08:43:36;;;;;;;10.82;6.25;;;2.10;95.90;;;;;;5005376;28;20435;-71
2020/12/26 08:46:15;;;;;;;12.23;5.88;;;2.10;95.60;;;;;;5024998;28;20025;-73
2020/12/26 08:48:42;;;;;;;11.10;5.18;;;2.10;95.80;;;;;;5003213;28;20030;-74
2020/12/26 08:51:17;;;;;;;9.77;5.60;;;2.10;95.80;;;;;;4987228;28;20067;-74
2020/12/26 08:53:44;;;;;;;11.75;5.80;;;2.10;95.80;;;;;;4995315;28;20037;-72
2020/12/26 08:56:10;;;;;;;8.68;5.18;;;2.10;95.60;;;;;;5002899;28;20179;-72
2020/12/26 08:58:36;;;;;;;14.63;5.40;;;2.10;95.80;;;;;;5022282;28;20093;-72
2020/12/26 09:01:05;;;;;;;9.10;5.43;;;2.10;95.70;;;;;;5003209;28;20061;-72
2020/12/26 09:03:33;;;;;;;9.88;5.32;;;2.10;95.80;;;;;;5002323;28;20025;-72
2020/12/26 09:06:01;;;;;;;13.20;5.45;;;2.10;95.90;;;;;;5000545;28;20465;-73
2020/12/26 09:08:32;;;;;;;13.68;5.90;;;2.10;95.80;;;;;;5003990;28;20480;-73
2020/12/26 09:11:00;;;;;;;11.35;5.20;;;2.20;95.90;;;;;;5001426;28;20025;-72
2020/12/26 09:13:48;;;;;;;11.18;4.78;;;2.20;96.00;;;;;;5022129;28;20031;-73
2020/12/26 09:16:15;;;;;;;12.32;5.53;;;2.20;96.00;;;;;;5006121;28;20396;-73
2020/12/26 09:18:48;;;;;;;9.60;5.38;;;2.20;96.00;;;;;;5005327;28;20144;-75
2020/12/26 09:21:23;;;;;;;10.40;5.85;;;2.20;95.90;;;;;;4991332;28;20044;-72
2020/12/26 09:23:50;;;;;;;14.93;6.60;;;2.20;96.00;;;;;;4986910;28;20072;-74
2020/12/26 09:26:21;;;;;;;11.55;4.97;;;2.20;96.00;;;;;;5003808;28;20108;-74
2020/12/26 09:28:48;;;;;;;8.70;5.57;;;2.30;95.90;;;;;;5004116;28;20447;-74
2020/12/26 09:31:16;;;;;;;17.25;6.65;;;2.30;96.20;;;;;;5023643;28;20022;-74
2020/12/26 09:33:42;;;;;;;11.80;6.10;;;2.30;95.90;;;;;;4986807;28;20521;-72
2020/12/26 09:36:15;;;;;;;12.77;5.43;;;2.30;95.80;;;;;;5004246;28;20029;-73
2020/12/26 09:38:41;;;;;;;11.65;5.70;;;2.30;95.90;;;;;;5009756;28;20033;-73
2020/12/26 09:41:21;;;;;;;11.70;4.90;;;2.40;95.80;;;;;;5010503;28;20026;-74
2020/12/26 09:43:50;;;;;;;11.48;5.72;;;2.40;95.80;;;;;;5005241;28;20025;-73
2020/12/26 09:46:17;;;;;;;10.80;5.28;;;2.40;95.80;;;;;;5009760;28;20021;-73
2020/12/26 09:48:44;;;;;;;9.23;4.90;;;2.40;95.80;;;;;;5002334;28;20034;-73
2020/12/26 09:51:12;;;;;;;13.00;5.28;;;2.40;95.80;;;;;;5000667;28;20025;-74
2020/12/26 09:53:37;;;;;;;10.93;5.22;;;2.40;95.90;;;;;;5003558;28;20055;-73
2020/12/26 09:56:06;;;;;;;16.30;5.90;;;2.40;95.90;;;;;;4987239;28;20116;-73
2020/12/26 09:58:32;;;;;;;10.80;5.05;;;2.40;95.90;;;;;;4987381;28;20030;-73
2020/12/26 10:00:58;;;;;;;12.57;4.82;;;2.50;95.70;;;;;;5002046;28;20032;-73
2020/12/26 10:03:23;;;;;;;10.80;5.07;;;2.50;95.80;;;;;;5002356;28;20057;-73
2020/12/26 10:05:49;;;;;;;9.85;4.70;;;2.50;95.80;;;;;;5003735;28;20018;-72
2020/12/26 10:08:15;;;;;;;16.02;5.32;;;2.50;95.80;;;;;;5010975;28;20034;-73
2020/12/26 10:10:40;;;;;;;8.73;4.57;;;2.60;95.60;;;;;;5003903;28;20017;-72
2020/12/26 10:13:06;;;;;;;8.80;5.30;;;2.50;95.60;;;;;;5002479;28;21368;-73
2020/12/26 10:15:32;;;;;;;11.30;4.95;;;2.60;95.70;;;;;;5021630;28;20060;-73
2020/12/26 10:17:58;;;;;;;9.18;5.00;;;2.60;95.70;;;;;;5026957;28;20041;-72
2020/12/26 10:20:26;;;;;;;8.20;4.93;;;2.60;95.70;;;;;;5020192;28;20030;-73
2020/12/26 10:22:52;;;;;;;10.77;5.07;;;2.60;95.80;;;;;;5030432;28;20036;-73
2020/12/26 10:25:17;;;;;;;63.60;28.15;;;2.60;95.70;;;;;;4989795;28;20384;-73
2020/12/26 10:27:43;;;;;;;67.20;31.48;;;2.60;95.70;;;;;;5007248;28;20025;-73
2020/12/26 10:30:09;;;;;;;50.20;26.00;;;2.70;95.60;;;;;;5004990;28;20024;-73
2020/12/26 10:32:34;;;;;;;16.77;9.85;;;2.70;95.60;;;;;;5007096;28;20068;-72
2020/12/26 10:35:01;;;;;;;8.27;5.03;;;2.60;95.80;;;;;;5007291;28;20040;-73
2020/12/26 10:37:27;;;;;;;9.07;5.10;;;2.70;95.50;;;;;;5006261;28;20536;-73
2020/12/26 10:39:55;;;;;;;11.00;4.68;;;2.70;95.60;;;;;;5015026;28;20056;-74
2020/12/26 10:42:21;;;;;;;12.80;5.75;;;2.60;95.60;;;;;;5005400;28;20481;-73
2020/12/26 10:44:47;;;;;;;11.00;5.90;;;2.60;95.60;;;;;;5006335;28;20105;-73
2020/12/26 10:47:12;;;;;;;10.18;5.50;;;2.60;95.60;;;;;;5027408;28;20065;-73
2020/12/26 10:49:38;;;;;;;10.30;5.03;;;2.70;95.60;;;;;;5009466;28;20058;-73
2020/12/26 10:52:04;;;;;;;13.43;5.38;;;2.70;95.50;;;;;;5005479;28;20025;-73
2020/12/26 10:54:29;;;;;;;10.88;5.32;;;2.70;95.60;;;;;;5005843;28;20038;-73
2020/12/26 10:56:55;;;;;;;11.15;5.25;;;2.70;95.60;;;;;;5021312;28;20112;-73
2020/12/26 10:59:21;;;;;;;11.07;5.25;;;2.70;95.70;;;;;;5005842;28;20025;-73
2020/12/26 11:01:46;;;;;;;12.88;5.63;;;2.70;95.70;;;;;;5023963;28;20397;-73
2020/12/26 11:04:13;;;;;;;12.15;5.22;;;2.70;95.80;;;;;;4988262;28;20033;-73
2020/12/26 11:06:38;;;;;;;10.95;5.32;;;2.70;95.60;;;;;;5023485;28;20036;-73
2020/12/26 11:09:04;;;;;;;10.70;5.75;;;2.70;95.60;;;;;;5029358;28;20022;-74
2020/12/26 11:11:29;;;;;;;12.65;5.55;;;2.70;95.70;;;;;;5004874;28;20026;-74
2020/12/26 11:13:55;;;;;;;12.13;5.75;;;2.80;95.70;;;;;;5007068;28;20033;-74
2020/12/26 11:16:21;;;;;;;12.88;6.43;;;2.80;95.70;;;;;;5029784;28;20029;-74
2020/12/26 11:18:47;;;;;;;9.40;6.03;;;2.90;95.50;;;;;;5023926;28;20037;-74
2020/12/26 11:21:16;;;;;;;10.93;6.22;;;2.90;95.60;;;;;;4988812;28;20110;-72
2020/12/26 11:23:43;;;;;;;10.43;6.20;;;2.90;95.60;;;;;;5003974;28;20033;-72
2020/12/26 11:26:12;;;;;;;12.20;6.82;;;2.90;95.60;;;;;;4989094;28;20076;-72
2020/12/26 11:28:39;;;;;;;17.70;6.80;;;2.90;95.50;;;;;;4988849;28;20064;-73
2020/12/26 11:31:05;;;;;;;14.30;6.57;;;3.00;95.40;;;;;;5005507;28;20014;-73
2020/12/26 11:33:31;;;;;;;10.80;6.38;;;3.00;95.50;;;;;;5004811;28;20036;-73
2020/12/26 11:35:57;;;;;;;15.95;7.10;;;3.00;95.50;;;;;;5004610;28;20104;-73
2020/12/26 11:38:23;;;;;;;13.18;7.32;;;3.00;95.60;;;;;;4989199;28;20144;-73
2020/12/26 11:40:48;;;;;;;14.30;7.00;;;3.10;95.50;;;;;;5005106;28;20027;-73
2020/12/26 11:43:14;;;;;;;14.05;7.10;;;3.10;95.50;;;;;;4989250;28;20064;-73
2020/12/26 11:45:40;;;;;;;12.52;7.32;;;3.10;95.50;;;;;;5005186;28;20049;-72
2020/12/26 11:48:06;;;;;;;16.73;9.07;;;3.10;95.40;;;;;;4987668;28;20100;-73
2020/12/26 11:50:31;;;;;;;12.15;7.68;;;3.10;95.50;;;;;;5005112;28;20033;-73
2020/12/26 11:52:57;;;;;;;14.93;8.55;;;3.10;95.50;;;;;;5000057;28;20045;-72
2020/12/26 11:55:23;;;;;;;13.85;8.27;;;3.10;95.50;;;;;;5004000;28;20022;-73
2020/12/26 11:57:49;;;;;;;18.55;8.35;;;3.20;95.50;;;;;;5004961;28;20041;-72
2020/12/26 12:00:15;;;;;;;13.57;7.53;;;3.20;95.50;;;;;;5005129;28;20060;-73
2020/12/26 12:02:40;;;;;;;17.02;8.40;;;3.20;95.60;;;;;;5002784;28;20054;-73
2020/12/26 12:05:06;;;;;;;15.35;8.93;;;3.30;95.40;;;;;;5012129;28;20014;-74
2020/12/26 12:07:35;;;;;;;15.35;8.52;;;3.30;95.40;;;;;;4990529;28;20041;-72
2020/12/26 12:10:00;;;;;;;14.82;8.95;;;3.30;95.40;;;;;;5005211;28;20484;-72
2020/12/26 12:12:26;;;;;;;14.25;8.95;;;3.30;95.50;;;;;;5021768;28;20080;-72
2020/12/26 12:14:52;;;;;;;15.88;8.88;;;3.30;95.40;;;;;;5004105;28;20564;-72
2020/12/26 12:17:18;;;;;;;13.98;8.57;;;3.30;95.40;;;;;;5012343;28;20481;-73
2020/12/26 12:19:44;;;;;;;16.02;9.32;;;3.40;95.50;;;;;;5002976;28;20033;-73
2020/12/26 12:22:09;;;;;;;15.43;9.57;;;3.40;95.40;;;;;;4988768;28;20022;-73
2020/12/26 12:24:35;;;;;;;14.55;9.32;;;3.40;95.30;;;;;;5003978;28;20034;-72
2020/12/26 12:27:01;;;;;;;19.45;9.55;;;3.40;95.30;;;;;;4987778;28;20511;-73
2020/12/26 12:29:26;;;;;;;16.83;9.30;;;3.50;95.30;;;;;;5020041;28;20062;-73
2020/12/26 12:31:52;;;;;;;15.10;9.77;;;3.50;95.20;;;;;;5021095;28;20025;-73
2020/12/26 12:34:18;;;;;;;19.55;10.43;;;3.50;95.20;;;;;;5003937;28;20026;-74
2020/12/26 12:36:43;;;;;;;14.30;9.20;;;3.50;95.30;;;;;;5005078;28;20033;-73
2020/12/26 12:39:09;;;;;;;18.33;10.57;;;3.60;95.30;;;;;;5028987;28;20033;-73
2020/12/26 12:41:35;;;;;;;21.60;11.00;;;3.60;94.90;;;;;;5005513;28;20087;-73
2020/12/26 12:44:00;;;;;;;17.73;10.10;;;3.60;94.90;;;;;;4988809;28;20037;-73
2020/12/26 12:46:26;;;;;;;16.13;9.82;;;3.70;95.10;;;;;;5010781;28;20076;-73
2020/12/26 12:48:52;;;;;;;18.17;10.40;;;3.70;94.90;;;;;;5020959;28;20030;-73